createdAt,value
2022-08-03T00:01:53.709Z,19.80
2022-08-03T00:04:20.763Z,19.60
2022-08-03T00:06:47.827Z,19.60
2022-08-03T00:09:14.816Z,19.50
2022-08-03T00:11:41.856Z,19.40
2022-08-03T00:14:09.491Z,19.30
2022-08-03T00:16:36.512Z,19.30
2022-08-03T00:19:04.099Z,19.20
2022-08-03T00:21:31.111Z,19.20
2022-08-03T00:23:58.071Z,19.20
2022-08-03T00:26:25.133Z,19.20
2022-08-03T00:28:52.389Z,19.20
2022-08-03T00:31:23.144Z,19.20
2022-08-03T00:34:06.860Z,19.10
2022-08-03T00:36:33.954Z,19.10
2022-08-03T00:39:01.216Z,19.00
2022-08-03T00:41:28.368Z,19.10
2022-08-03T00:43:55.429Z,18.90
2022-08-03T00:46:22.561Z,18.90
2022-08-03T00:48:53.315Z,18.90
2022-08-03T00:51:21.798Z,18.80
2022-08-03T00:53:49.637Z,18.90
2022-08-03T00:56:17.786Z,18.80
2022-08-03T00:58:46.468Z,18.80
2022-08-03T01:01:15.614Z,18.80
2022-08-03T01:03:42.825Z,18.80
2022-08-03T01:06:25.686Z,18.80
2022-08-03T01:09:08.155Z,18.80
2022-08-03T01:12:08.071Z,18.70
2022-08-03T01:15:01.520Z,18.60
2022-08-03T01:18:03.385Z,18.60
2022-08-03T01:20:35.526Z,18.60
2022-08-03T01:23:40.080Z,18.60
2022-08-03T01:26:56.636Z,18.50
2022-08-03T01:30:06.545Z,18.40
2022-08-03T01:33:01.887Z,18.30
2022-08-03T01:35:59.067Z,18.40
2022-08-03T01:38:29.468Z,18.40
2022-08-03T01:40:57.916Z,18.50
2022-08-03T01:44:27.760Z,18.40
2022-08-03T01:46:20.691Z,18.30
2022-08-03T01:48:49.084Z,18.20
2022-08-03T01:51:18.611Z,18.20
2022-08-03T01:53:48.313Z,18.20
2022-08-03T01:56:17.891Z,18.10
2022-08-03T01:58:48.175Z,18.10
2022-08-03T02:01:17.114Z,18.20
2022-08-03T02:04:00.005Z,18.00
2022-08-03T02:07:02.303Z,18.00
2022-08-03T02:09:21.764Z,18.00
2022-08-03T02:11:51.049Z,17.90
2022-08-03T02:14:20.079Z,18.00
2022-08-03T02:16:49.384Z,17.90
2022-08-03T02:19:18.176Z,17.90
2022-08-03T02:21:57.305Z,17.90
2022-08-03T02:24:29.622Z,17.80
2022-08-03T02:26:57.402Z,17.80
2022-08-03T02:29:39.847Z,17.80
2022-08-03T02:32:10.492Z,17.80
2022-08-03T02:34:40.042Z,17.70
2022-08-03T02:37:08.574Z,17.80
2022-08-03T02:39:36.823Z,17.90
2022-08-03T02:42:05.736Z,17.70
2022-08-03T02:44:35.721Z,17.70
2022-08-03T02:47:08.025Z,17.70
2022-08-03T02:49:50.365Z,17.70
2022-08-03T02:52:21.540Z,17.60
2022-08-03T02:54:51.175Z,17.50
2022-08-03T02:57:20.237Z,17.50
2022-08-03T02:59:47.791Z,17.40
2022-08-03T03:02:17.025Z,17.40
2022-08-03T03:05:51.720Z,17.40
2022-08-03T03:07:33.921Z,17.50
2022-08-03T03:10:10.186Z,17.50
2022-08-03T03:12:40.914Z,17.40
2022-08-03T03:15:08.509Z,17.40
2022-08-03T03:17:37.461Z,17.40
2022-08-03T03:20:06.131Z,17.40
2022-08-03T03:22:34.101Z,17.30
2022-08-03T03:25:02.060Z,17.30
2022-08-03T03:27:29.731Z,17.20
2022-08-03T03:29:58.135Z,17.20
2022-08-03T03:32:27.667Z,17.20
2022-08-03T03:34:57.031Z,17.20
2022-08-03T03:37:24.027Z,17.20
2022-08-03T03:39:51.065Z,17.20
2022-08-03T03:42:18.217Z,17.20
2022-08-03T03:44:45.445Z,17.20
2022-08-03T03:47:13.382Z,17.10
2022-08-03T03:49:42.938Z,17.00
2022-08-03T03:52:10.804Z,17.10
2022-08-03T03:54:45.254Z,17.10
2022-08-03T03:57:13.671Z,17.10
2022-08-03T03:59:43.893Z,17.00
2022-08-03T04:02:12.331Z,17.00
2022-08-03T04:04:58.392Z,17.00
2022-08-03T04:07:45.522Z,17.00
2022-08-03T04:10:43.910Z,16.90
2022-08-03T04:13:14.227Z,16.80
2022-08-03T04:15:42.748Z,16.80
2022-08-03T04:18:13.797Z,16.80
2022-08-03T04:20:47.639Z,16.90
2022-08-03T04:23:20.223Z,17.00
2022-08-03T04:25:50.548Z,17.00
2022-08-03T04:28:30.343Z,17.00
2022-08-03T04:31:03.635Z,17.10
2022-08-03T04:33:35.019Z,17.20
2022-08-03T04:36:07.256Z,17.10
2022-08-03T04:38:46.784Z,17.10
2022-08-03T04:41:14.650Z,17.10
2022-08-03T04:43:42.327Z,17.10
2022-08-03T04:46:10.137Z,17.10
2022-08-03T04:48:37.570Z,17.10
2022-08-03T04:51:05.027Z,17.10
2022-08-03T04:53:32.045Z,17.30
2022-08-03T04:56:06.919Z,17.30
2022-08-03T04:58:34.040Z,17.30
2022-08-03T05:01:01.271Z,17.30
2022-08-03T05:03:28.333Z,17.30
2022-08-03T05:06:09.428Z,17.30
2022-08-03T05:08:45.282Z,17.40
2022-08-03T05:11:17.131Z,17.40
2022-08-03T05:13:45.159Z,17.50
2022-08-03T05:16:13.996Z,17.50
2022-08-03T05:18:42.219Z,17.60
2022-08-03T05:21:16.985Z,17.60
2022-08-03T05:23:44.964Z,17.80
2022-08-03T05:26:12.317Z,17.90
2022-08-03T05:28:39.915Z,17.90
2022-08-03T05:31:18.684Z,18.00
2022-08-03T05:33:45.701Z,18.10
2022-08-03T05:36:12.791Z,18.20
2022-08-03T05:41:36.907Z,18.30
2022-08-03T05:44:04.803Z,18.30
2022-08-03T05:46:31.824Z,18.40
2022-08-03T05:48:58.913Z,18.60
2022-08-03T05:51:26.019Z,18.70
2022-08-03T05:53:53.132Z,18.70
2022-08-03T05:56:24.496Z,18.80
2022-08-03T05:58:52.584Z,18.90
2022-08-03T06:01:21.956Z,19.00
2022-08-03T06:03:49.988Z,19.10
2022-08-03T06:06:17.085Z,19.20
2022-08-03T06:08:45.067Z,19.30
2022-08-03T06:11:12.912Z,19.40
2022-08-03T06:13:40.324Z,19.40
2022-08-03T06:16:07.502Z,19.50
2022-08-03T06:18:35.434Z,19.80
2022-08-03T06:21:11.047Z,20.00
2022-08-03T06:23:55.228Z,20.00
2022-08-03T06:26:24.606Z,19.90
2022-08-03T06:28:54.181Z,20.00
2022-08-03T06:31:24.025Z,20.30
2022-08-03T06:34:32.324Z,20.50
2022-08-03T06:36:38.855Z,20.50
2022-08-03T06:39:06.243Z,20.70
2022-08-03T06:41:37.455Z,20.80
2022-08-03T06:44:08.808Z,21.00
2022-08-03T06:46:37.470Z,21.30
2022-08-03T06:49:04.587Z,21.30
2022-08-03T06:52:06.174Z,21.30
2022-08-03T06:54:18.959Z,21.50
2022-08-03T06:56:45.990Z,21.70
2022-08-03T07:00:10.656Z,21.60
2022-08-03T07:02:01.303Z,21.80
2022-08-03T07:04:28.283Z,21.80
2022-08-03T07:06:55.348Z,21.90
2022-08-03T07:09:22.635Z,22.00
2022-08-03T07:11:49.687Z,22.10
2022-08-03T07:14:16.742Z,22.20
2022-08-03T07:16:43.766Z,22.40
2022-08-03T07:19:11.132Z,22.40
2022-08-03T07:21:38.203Z,22.80
2022-08-03T07:24:06.059Z,22.80
2022-08-03T07:26:33.243Z,23.20
2022-08-03T07:29:01.579Z,23.30
2022-08-03T07:31:28.723Z,23.70
2022-08-03T07:34:01.626Z,24.00
2022-08-03T07:36:28.641Z,23.90
2022-08-03T07:38:55.775Z,23.70
2022-08-03T07:41:22.790Z,23.60
2022-08-03T07:43:49.839Z,23.90
2022-08-03T07:46:16.890Z,24.40
2022-08-03T07:48:43.967Z,24.10
2022-08-03T07:51:11.237Z,24.20
2022-08-03T07:53:41.399Z,24.40
2022-08-03T07:56:14.649Z,24.50
2022-08-03T07:58:41.795Z,24.70
2022-08-03T08:01:09.104Z,24.70
2022-08-03T08:03:41.985Z,25.00
2022-08-03T08:06:21.666Z,25.00
2022-08-03T08:08:48.878Z,25.30
2022-08-03T08:11:16.231Z,25.30
2022-08-03T08:13:43.350Z,25.40
2022-08-03T08:16:10.381Z,25.60
2022-08-03T08:18:37.655Z,25.90
2022-08-03T08:21:04.680Z,26.10
2022-08-03T08:23:43.158Z,25.90
2022-08-03T08:26:11.447Z,25.80
2022-08-03T08:28:38.622Z,25.90
2022-08-03T08:31:05.844Z,26.40
2022-08-03T08:34:02.467Z,26.30
2022-08-03T08:36:22.050Z,26.30
2022-08-03T08:38:49.274Z,26.10
2022-08-03T08:41:17.904Z,26.40
2022-08-03T08:43:44.933Z,26.90
2022-08-03T08:46:23.537Z,27.10
2022-08-03T08:48:53.011Z,27.10
2022-08-03T08:51:21.875Z,27.90
2022-08-03T08:53:52.741Z,27.80
2022-08-03T08:56:22.205Z,27.80
2022-08-03T08:58:52.646Z,27.50
2022-08-03T09:01:20.812Z,27.30
2022-08-03T09:03:48.758Z,27.60
2022-08-03T09:06:17.019Z,27.60
2022-08-03T09:08:44.073Z,27.50
2022-08-03T09:11:11.994Z,27.50
2022-08-03T09:13:40.049Z,27.70
2022-08-03T09:16:21.701Z,28.30
2022-08-03T09:18:51.306Z,28.60
2022-08-03T09:21:34.499Z,28.30
2022-08-03T09:24:06.238Z,28.60
2022-08-03T09:26:38.131Z,28.60
2022-08-03T09:29:15.016Z,29.00
2022-08-03T09:31:46.231Z,29.50
2022-08-03T09:34:15.160Z,29.50
2022-08-03T09:36:44.694Z,29.00
2022-08-03T09:39:37.474Z,29.50
2022-08-03T09:42:10.317Z,29.30
2022-08-03T09:44:43.466Z,29.30
2022-08-03T09:47:13.142Z,29.80
2022-08-03T09:49:41.734Z,29.70
2022-08-03T09:52:31.861Z,29.90
2022-08-03T09:56:02.374Z,29.70
2022-08-03T09:58:09.582Z,30.00
2022-08-03T10:00:57.898Z,29.90
2022-08-03T10:03:26.774Z,29.90
2022-08-03T10:05:59.397Z,30.10
2022-08-03T10:08:27.667Z,30.00
2022-08-03T10:10:54.774Z,30.70
2022-08-03T10:13:23.232Z,31.00
2022-08-03T10:16:21.276Z,31.00
2022-08-03T10:18:37.909Z,31.10
2022-08-03T10:21:10.725Z,32.50
2022-08-03T10:23:38.852Z,33.30
2022-08-03T10:26:08.162Z,33.30
2022-08-03T10:28:44.798Z,32.60
2022-08-03T10:31:14.060Z,31.30
2022-08-03T10:33:52.830Z,30.90
2022-08-03T10:36:24.595Z,31.00
2022-08-03T10:38:53.844Z,31.50
2022-08-03T10:41:23.274Z,31.10
2022-08-03T10:44:05.618Z,31.60
2022-08-03T10:46:34.638Z,31.50
2022-08-03T10:49:02.859Z,32.40
2022-08-03T10:51:33.201Z,32.10
2022-08-03T10:54:01.828Z,33.10
2022-08-03T10:57:07.901Z,34.30
2022-08-03T11:00:08.330Z,32.70
2022-08-03T11:03:10.336Z,32.00
2022-08-03T11:06:19.514Z,31.60
2022-08-03T11:09:10.709Z,32.30
2022-08-03T11:11:39.227Z,32.50
2022-08-03T11:14:19.103Z,32.60
2022-08-03T11:16:52.448Z,32.80
2022-08-03T11:19:27.598Z,32.70
2022-08-03T11:21:56.409Z,33.40
2022-08-03T11:24:58.775Z,33.30
2022-08-03T11:27:28.008Z,33.50
2022-08-03T11:30:23.116Z,33.50
2022-08-03T11:32:58.366Z,35.00
2022-08-03T11:35:33.847Z,35.20
2022-08-03T11:38:06.082Z,33.40
2022-08-03T11:41:02.774Z,34.20
2022-08-03T11:43:48.001Z,34.80
2022-08-03T11:46:28.353Z,35.10
2022-08-03T11:49:11.118Z,35.00
2022-08-03T11:51:41.181Z,36.00
2022-08-03T11:54:08.556Z,35.10
2022-08-03T11:56:49.742Z,35.00
2022-08-03T11:59:21.578Z,33.70
2022-08-03T12:01:50.163Z,34.30
2022-08-03T12:04:17.199Z,33.80
2022-08-03T12:06:59.338Z,34.30
2022-08-03T12:09:26.339Z,34.20
2022-08-03T12:11:59.616Z,35.90
2022-08-03T12:14:48.686Z,35.80
2022-08-03T12:17:15.865Z,36.40
2022-08-03T12:19:44.102Z,36.40
2022-08-03T12:22:11.223Z,37.00
2022-08-03T12:24:42.711Z,36.70
2022-08-03T12:27:09.816Z,37.10
2022-08-03T12:29:37.404Z,35.80
2022-08-03T12:32:04.875Z,35.10
2022-08-03T12:34:48.837Z,35.30
2022-08-03T12:37:23.667Z,37.30
2022-08-03T12:40:02.178Z,36.40
2022-08-03T12:42:35.450Z,35.10
2022-08-03T12:45:28.327Z,35.10
2022-08-03T12:48:01.076Z,35.40
2022-08-03T12:50:41.395Z,36.80
2022-08-03T12:53:10.025Z,36.40
2022-08-03T12:55:40.059Z,35.00
2022-08-03T12:58:33.814Z,34.60
2022-08-03T13:01:04.738Z,34.70
2022-08-03T13:03:45.751Z,35.10
2022-08-03T13:06:19.061Z,35.20
2022-08-03T13:08:48.050Z,36.40
2022-08-03T13:11:20.088Z,37.40
2022-08-03T13:13:47.144Z,37.80
2022-08-03T13:16:19.010Z,38.40
2022-08-03T13:18:49.509Z,39.10
2022-08-03T13:21:16.872Z,38.70
2022-08-03T13:23:44.669Z,38.30
2022-08-03T13:26:12.282Z,38.90
2022-08-03T13:28:40.011Z,38.90
2022-08-03T13:31:07.454Z,38.50
2022-08-03T13:33:34.812Z,39.60
2022-08-03T13:36:01.868Z,39.30
2022-08-03T13:38:28.972Z,36.90
2022-08-03T13:40:56.025Z,37.30
2022-08-03T13:43:23.420Z,38.30
2022-08-03T13:45:54.850Z,38.10
2022-08-03T13:48:37.264Z,38.70
2022-08-03T13:51:21.592Z,39.70
2022-08-03T13:53:50.596Z,38.50
2022-08-03T13:56:17.613Z,36.30
2022-08-03T13:58:44.663Z,36.10
2022-08-03T14:01:11.876Z,36.20
2022-08-03T14:03:39.106Z,37.50
2022-08-03T14:06:06.244Z,38.50
2022-08-03T14:08:33.335Z,39.70
2022-08-03T14:11:00.542Z,39.50
2022-08-03T14:13:27.627Z,38.90
2022-08-03T14:15:55.735Z,37.20
2022-08-03T14:18:28.984Z,36.60
2022-08-03T14:21:05.891Z,36.10
2022-08-03T14:23:34.881Z,35.60
2022-08-03T14:26:01.942Z,35.80
2022-08-03T14:28:29.107Z,37.20
2022-08-03T14:30:56.265Z,38.20
2022-08-03T14:33:23.731Z,38.40
2022-08-03T14:35:51.831Z,39.50
2022-08-03T14:38:19.687Z,40.40
2022-08-03T14:40:46.794Z,40.90
2022-08-03T14:43:14.619Z,40.70
2022-08-03T14:45:42.031Z,39.10
2022-08-03T14:50:34.227Z,39.70
2022-08-03T14:50:56.932Z,39.80
2022-08-03T14:53:24.501Z,39.90
2022-08-03T14:55:53.406Z,39.40
2022-08-03T14:58:22.182Z,40.10
2022-08-03T15:00:51.326Z,39.80
2022-08-03T15:03:24.908Z,39.30
2022-08-03T15:05:54.203Z,39.40
2022-08-03T15:08:22.273Z,38.00
2022-08-03T15:10:49.671Z,38.40
2022-08-03T15:13:18.125Z,38.70
2022-08-03T15:15:45.476Z,39.40
2022-08-03T15:18:12.606Z,38.40
2022-08-03T15:20:44.874Z,38.80
2022-08-03T15:23:14.367Z,38.40
2022-08-03T15:26:32.120Z,38.20
2022-08-03T15:28:29.789Z,38.00
2022-08-03T15:30:56.843Z,37.20
2022-08-03T15:33:23.910Z,36.90
2022-08-03T15:35:50.942Z,37.20
2022-08-03T15:38:17.997Z,37.60
2022-08-03T15:40:45.747Z,36.50
2022-08-03T15:43:12.780Z,37.80
2022-08-03T15:45:41.839Z,38.40
2022-08-03T15:48:09.227Z,37.60
2022-08-03T15:50:36.345Z,37.90
2022-08-03T15:53:04.100Z,36.90
2022-08-03T15:55:31.729Z,37.30
2022-08-03T15:59:03.987Z,37.30
2022-08-03T16:00:46.020Z,37.90
2022-08-03T16:03:13.216Z,36.90
2022-08-03T16:05:40.509Z,37.60
2022-08-03T16:08:11.820Z,37.50
2022-08-03T16:10:41.132Z,36.20
2022-08-03T16:13:08.290Z,36.10
2022-08-03T16:15:38.443Z,36.50
2022-08-03T16:18:06.870Z,37.00
2022-08-03T16:20:35.318Z,37.30
2022-08-03T16:23:10.515Z,38.70
2022-08-03T16:25:40.990Z,38.90
2022-08-03T16:28:13.923Z,38.90
2022-08-03T16:30:44.335Z,37.70
2022-08-03T16:33:17.205Z,38.30
2022-08-03T16:35:46.249Z,39.50
2022-08-03T16:38:18.385Z,38.10
2022-08-03T16:40:47.195Z,38.50
2022-08-03T16:43:18.290Z,39.90
2022-08-03T16:45:49.385Z,39.90
2022-08-03T16:48:17.199Z,39.80
2022-08-03T16:50:46.170Z,38.50
2022-08-03T16:53:16.231Z,37.90
2022-08-03T16:55:53.989Z,38.00
2022-08-03T16:58:41.800Z,37.00
2022-08-03T17:01:21.600Z,38.70
2022-08-03T17:04:04.566Z,39.50
2022-08-03T17:06:35.759Z,40.00
2022-08-03T17:09:08.690Z,41.00
2022-08-03T17:11:38.921Z,41.30
2022-08-03T17:14:12.154Z,40.10
2022-08-03T17:16:39.695Z,38.80
2022-08-03T17:19:23.179Z,39.80
2022-08-03T17:21:58.543Z,38.70
2022-08-03T17:24:41.361Z,37.10
2022-08-03T17:27:18.627Z,37.00
2022-08-03T17:30:10.423Z,36.60
2022-08-03T17:32:42.397Z,36.10
2022-08-03T17:35:10.779Z,36.10
2022-08-03T17:37:57.987Z,35.80
2022-08-03T17:40:25.480Z,35.40
2022-08-03T17:42:53.272Z,35.60
2022-08-03T17:45:20.583Z,35.80
2022-08-03T17:47:57.730Z,35.50
2022-08-03T17:50:46.214Z,35.40
2022-08-03T17:53:23.931Z,35.10
2022-08-03T17:56:46.237Z,34.90
2022-08-03T17:59:50.911Z,34.70
2022-08-03T18:03:10.130Z,34.40
2022-08-03T18:08:32.652Z,34.30
2022-08-03T18:11:14.963Z,33.80
2022-08-03T18:14:09.990Z,33.40
2022-08-03T18:16:56.895Z,32.90
2022-08-03T18:20:03.530Z,32.30
2022-08-03T18:22:13.232Z,31.90
2022-08-03T18:24:42.232Z,31.80
2022-08-03T18:27:10.962Z,31.50
2022-08-03T18:29:39.901Z,31.40
2022-08-03T18:35:00.780Z,30.90
2022-08-03T18:37:29.779Z,30.70
2022-08-03T18:39:57.978Z,30.40
2022-08-03T18:42:26.809Z,30.20
2022-08-03T18:44:56.288Z,30.00
2022-08-03T18:47:55.399Z,29.80
2022-08-03T18:50:34.620Z,29.80
2022-08-03T18:53:15.627Z,29.60
2022-08-03T18:56:23.231Z,29.50
2022-08-03T18:59:04.314Z,29.30
2022-08-03T19:01:59.739Z,29.10
2022-08-03T19:05:01.614Z,29.10
2022-08-03T19:07:35.883Z,28.90
2022-08-03T19:10:09.424Z,28.80
2022-08-03T19:13:11.541Z,28.50
2022-08-03T19:15:51.574Z,28.40
2022-08-03T19:18:21.087Z,28.00
2022-08-03T19:20:54.824Z,27.90
2022-08-03T19:23:25.207Z,27.80
2022-08-03T19:25:53.714Z,27.90
2022-08-03T19:28:29.891Z,28.00
2022-08-03T19:30:59.953Z,28.20
2022-08-03T19:33:33.324Z,28.00
2022-08-03T19:36:26.383Z,27.80
2022-08-03T19:38:56.490Z,27.80
2022-08-03T19:41:42.349Z,27.40
2022-08-03T19:44:19.931Z,27.40
2022-08-03T19:47:01.503Z,27.20
2022-08-03T19:50:06.145Z,27.10
2022-08-03T19:52:31.446Z,27.00
2022-08-03T19:55:00.954Z,27.20
2022-08-03T19:57:29.322Z,27.00
2022-08-03T19:59:57.770Z,26.90
2022-08-03T20:02:26.222Z,26.80
2022-08-03T20:04:57.373Z,26.90
2022-08-03T20:07:26.256Z,26.90
2022-08-03T20:09:56.554Z,26.90
2022-08-03T20:12:29.292Z,26.70
2022-08-03T20:14:58.257Z,26.70
2022-08-03T20:17:55.415Z,26.60
2022-08-03T20:20:14.361Z,26.50
2022-08-03T20:22:45.520Z,26.40
2022-08-03T20:25:16.284Z,26.30
2022-08-03T20:28:07.272Z,26.30
2022-08-03T20:30:42.535Z,26.20
2022-08-03T20:33:10.785Z,26.20
2022-08-03T20:35:38.076Z,26.10
2022-08-03T20:38:13.041Z,25.90
2022-08-03T20:40:40.037Z,25.90
2022-08-03T20:43:09.342Z,25.90
2022-08-03T20:46:00.321Z,25.80
2022-08-03T20:48:26.689Z,25.70
2022-08-03T20:50:55.461Z,25.70
2022-08-03T20:53:59.494Z,25.60
2022-08-03T20:56:10.166Z,25.40
2022-08-03T20:58:37.968Z,25.30
2022-08-03T21:01:09.230Z,25.30
2022-08-03T21:03:40.845Z,25.10
2022-08-03T21:06:27.946Z,25.10
2022-08-03T21:09:05.226Z,25.10
2022-08-03T21:11:41.861Z,25.00
2022-08-03T21:12:56.699Z,34.40
2022-08-03T21:13:04.378Z,31.20
2022-08-03T21:14:16.060Z,25.10
2022-08-03T21:16:45.850Z,25.00
2022-08-03T21:19:14.369Z,25.00
2022-08-03T21:21:44.553Z,24.80
2022-08-03T21:24:13.734Z,24.70
2022-08-03T21:26:42.672Z,24.60
2022-08-03T21:29:14.213Z,24.70
2022-08-03T21:31:41.265Z,24.60
2022-08-03T21:34:08.269Z,24.40
2022-08-03T21:36:37.726Z,24.40
2022-08-03T21:39:08.179Z,24.40
2022-08-03T21:41:37.022Z,24.40
2022-08-03T21:44:05.942Z,24.40
2022-08-03T21:46:42.956Z,24.20
2022-08-03T21:50:05.805Z,24.10
2022-08-03T21:52:05.190Z,24.00
2022-08-03T21:54:38.501Z,23.80
2022-08-03T21:57:13.159Z,23.80
2022-08-03T21:59:45.498Z,23.70
2022-08-03T22:02:24.250Z,23.60
2022-08-03T22:04:56.022Z,23.50
2022-08-03T22:07:26.378Z,23.50
2022-08-03T22:09:55.406Z,23.60
2022-08-03T22:12:27.009Z,23.60
2022-08-03T22:15:00.000Z,23.60
2022-08-03T22:17:53.611Z,23.50
2022-08-03T22:20:23.402Z,23.50
2022-08-03T22:22:55.737Z,23.40
2022-08-03T22:25:35.250Z,23.40
2022-08-03T22:28:13.173Z,23.40
2022-08-03T22:30:41.553Z,23.40
2022-08-03T22:33:11.503Z,23.30
2022-08-03T22:35:50.693Z,23.30
2022-08-03T22:38:18.810Z,23.10
2022-08-03T22:40:48.784Z,23.10
2022-08-03T22:43:16.247Z,23.20
2022-08-03T22:46:10.138Z,23.20
2022-08-03T22:48:35.514Z,23.20
2022-08-03T22:51:07.826Z,23.10
2022-08-03T22:53:36.028Z,23.00
2022-08-03T22:56:04.159Z,22.90
2022-08-03T22:58:31.252Z,22.90
2022-08-03T23:01:06.485Z,22.80
2022-08-03T23:04:01.121Z,22.80
2022-08-03T23:06:25.606Z,22.90
2022-08-03T23:08:53.640Z,22.80
2022-08-03T23:11:23.960Z,22.70
2022-08-03T23:13:54.393Z,22.60
2022-08-03T23:16:27.888Z,22.50
2022-08-03T23:18:58.740Z,22.40
2022-08-03T23:21:53.302Z,22.40
2022-08-03T23:24:25.282Z,22.30
2022-08-03T23:26:58.158Z,22.20
2022-08-03T23:29:26.669Z,22.10
2022-08-03T23:31:54.509Z,22.20
2022-08-03T23:34:42.078Z,22.20
2022-08-03T23:37:13.043Z,22.20
2022-08-03T23:39:42.317Z,22.10
2022-08-03T23:42:10.841Z,22.00
2022-08-03T23:44:41.870Z,21.90
2022-08-03T23:47:08.917Z,21.90
2022-08-03T23:49:36.278Z,21.80
2022-08-03T23:52:15.583Z,21.70
2022-08-03T23:55:16.217Z,21.80
2022-08-03T23:58:19.699Z,21.80
